Key West, FL

01:20 EDT le 26 septembre 2016 (GMT -0400)
Big Coppitt Key Gulfside | | Change Station

Alt. 31 ft 24.60 °N, 81.67 °W | Updated 1 minute ago

Mostly Cloudy
Nuageux
81.7 ° F
Paraît 87 ° F
N
3.7
Vent Variable Vent de ENE

Aujourd'hui
Haut(e) -- | Bas -- ° F
--% Risque de précip.
Hier
Haut(e) -- | Bas -- ° F
Precip. -- pouce
Pression 29.97 pouce
Visibilité -9999.0 Miles terrestres
Nuages Peu 2300 ft
Nuages épars 3200 ft
Nuageux 4400 ft
indice de chaleur 87 ° F
Point de rosée 73 ° F
Humidité 76%
Précipitations 0.00 pouce
Profondeur de la couche neigeuse Non disponible.
7:16 AM 7:18 PM
Lune descendante, 22% visible
METAR KNQX 260453Z AUTO 12007KT FEW023 SCT032 BKN044 28/24 A2997 RMK AO2 SLP148 T02830239 403220261 TSNO $
Pression 29.97 pouce
Visibilité -9999.0 Miles terrestres
Nuages Peu 2300 ft
Nuages épars 3200 ft
Nuageux 4400 ft
indice de chaleur 87 ° F
Point de rosée 73 ° F
Humidité 76%
Précipitations 0.00 pouce
Profondeur de la couche neigeuse Non disponible.
7:16 AM 7:18 PM
Lune descendante, 22% visible
METAR KNQX 260453Z AUTO 12007KT FEW023 SCT032 BKN044 28/24 A2997 RMK AO2 SLP148 T02830239 403220261 TSNO $

10-Day Weather Forecast

Almanac

Astronomie

Sep. 26, 2016 Lever Coucher
Temps réel
Crépuscule civil
Crépuscule nautique
Crépuscule astronomique
Lune
Durée de lumière visible
Longueur du jour
Tomorrow will be .
, % of the Moon is Illuminated

Extrêmes aujourd'hui

State Highs State Lows

Community

WunderPhotos

Upload Photos

1,941,852 Photos téléchargées !

WunderBlog® & News

Nearby

Qualité de l'air

  Qualité de l'air Indice de la qualité de l'air Polluant
Not available.

Épaisseur de neige

Station Depth Altitude

Activité sismique

Ville Distance Mag. Time & Date
Minimum magnitude displayed is 2.5.

Températures des eaux côtières

Lieu Température

Stations

Stations météo à proximité

Emplacement de la station Température Refroidissement éolien Point de rosée Humidité Vent Precip. Alt. Mise à jour Type
                   

Watches & Warnings

There are currently no watches in effect.